Time;durP1;ratioP1;P1;durP2;ratioP2;P2;SDS_P1;SDS_P2;PMS_P1;PMS_P2;Temp;Humidity;BMP_temperature;BMP_pressure;BME280_temperature;BME280_humidity;BME280_pressure;Samples;Min_cycle;Max_cycle;Signal;HPM_P1;HPM_P2
2021/05/11 00:01:38;;;;;;;0.43;0.43;;;;;;;;;;5030822;28;20032;-83
2021/05/11 00:04:04;;;;;;;0.68;0.40;;;;;;;;;;5030752;28;20034;-83
2021/05/11 00:06:30;;;;;;;0.30;0.30;;;;;;;;;;5030059;28;20022;-82
2021/05/11 00:08:56;;;;;;;0.47;0.47;;;;;;;;;;5027787;28;20149;-82
2021/05/11 00:11:22;;;;;;;0.43;0.43;;;;;;;;;;5017975;28;20431;-82
2021/05/11 00:13:48;;;;;;;0.30;0.30;;;;;;;;;;5030278;28;20025;-84
2021/05/11 00:16:14;;;;;;;0.68;0.57;;;;;;;;;;5030879;28;20029;-83
2021/05/11 00:18:40;;;;;;;1.42;0.55;;;;;;;;;;5029967;28;20026;-82
2021/05/11 00:21:06;;;;;;;0.30;0.30;;;;;;;;;;5026919;28;20032;-82
2021/05/11 00:23:32;;;;;;;0.65;0.47;;;;;;;;;;5030445;28;20030;-83
2021/05/11 00:25:58;;;;;;;0.40;0.40;;;;;;;;;;5013870;28;20032;-83
2021/05/11 00:28:24;;;;;;;0.43;0.43;;;;;;;;;;5030978;28;20116;-82
2021/05/11 00:30:50;;;;;;;0.47;0.40;;;;;;;;;;5019984;28;20165;-83
2021/05/11 00:33:16;;;;;;;0.30;0.30;;;;;;;;;;5023844;28;20129;-83
2021/05/11 00:35:43;;;;;;;0.30;0.30;;;;;;;;;;5027436;28;20064;-82
2021/05/11 00:38:09;;;;;;;0.22;0.22;;;;;;;;;;5014896;28;20026;-83
2021/05/11 00:40:35;;;;;;;0.40;0.40;;;;;;;;;;5015240;28;20032;-83
2021/05/11 00:43:01;;;;;;;0.22;0.22;;;;;;;;;;5018551;28;20032;-83
2021/05/11 00:45:27;;;;;;;0.30;0.30;;;;;;;;;;5025038;28;20116;-82
2021/05/11 00:47:53;;;;;;;0.57;0.30;;;;;;;;;;5028076;28;20030;-82
2021/05/11 00:50:19;;;;;;;0.30;0.30;;;;;;;;;;5015962;28;20036;-82
2021/05/11 00:52:45;;;;;;;0.30;0.30;;;;;;;;;;5030037;28;20025;-82
2021/05/11 00:55:11;;;;;;;0.38;0.35;;;;;;;;;;5030548;28;20706;-83
2021/05/11 00:57:37;;;;;;;3.60;0.30;;;;;;;;;;5021487;28;20463;-82
2021/05/11 01:00:07;;;;;;;0.30;0.30;;;;;;;;;;5021490;28;20028;-82
2021/05/11 01:02:33;;;;;;;0.30;0.30;;;;;;;;;;5029503;28;20033;-83
2021/05/11 01:05:00;;;;;;;0.40;0.40;;;;;;;;;;5029373;28;20132;-82
2021/05/11 01:07:26;;;;;;;0.60;0.60;;;;;;;;;;5030546;28;20033;-82
2021/05/11 01:09:52;;;;;;;0.38;0.30;;;;;;;;;;5019397;28;20036;-82
2021/05/11 01:12:18;;;;;;;0.30;0.30;;;;;;;;;;5023173;28;20474;-82
2021/05/11 01:14:46;;;;;;;0.40;0.40;;;;;;;;;;5028292;28;20049;-82
2021/05/11 01:17:17;;;;;;;0.30;0.30;;;;;;;;;;5014407;28;20025;-82
2021/05/11 01:19:49;;;;;;;0.22;0.22;;;;;;;;;;5013303;28;20028;-82
2021/05/11 01:22:35;;;;;;;0.52;0.40;;;14.50;57.60;;;;;;5029963;28;20528;-81
2021/05/11 01:25:08;;;;;;;2.85;0.50;;;;;;;;;;5029271;28;20398;-82
2021/05/11 02:18:18;;;;;;;0.20;0.20;;;;;;;;;;5028830;28;20140;-82
2021/05/11 02:23:29;;;;;;;0.40;0.40;;;;;;;;;;5028301;28;20048;-81
2021/05/11 02:25:59;;;;;;;0.40;0.30;;;14.20;60.40;;;;;;5027822;28;25664;-82
2021/05/11 02:28:25;;;;;;;0.68;0.35;;;;;;;;;;5028970;28;20040;-81
2021/05/11 02:30:51;;;;;;;0.45;0.45;;;;;;;;;;5028477;28;20057;-82
2021/05/11 02:33:17;;;;;;;2.75;0.50;;;14.20;59.70;;;;;;5028359;28;20052;-82
2021/05/11 02:35:43;;;;;;;0.30;0.30;;;;;;;;;;5027849;28;20037;-81
2021/05/11 02:38:10;;;;;;;0.20;0.20;;;;;;;;;;5013262;28;20033;-81
2021/05/11 02:40:36;;;;;;;0.30;0.30;;;;;;;;;;5028930;28;20494;-82
2021/05/11 02:43:05;;;;;;;1.00;0.50;;;;;;;;;;5028580;28;20025;-82
2021/05/11 02:45:33;;;;;;;0.30;0.30;;;;;;;;;;5027907;28;20069;-81
2021/05/11 02:47:59;;;;;;;1.13;1.02;;;;;;;;;;5028182;28;20029;-81
2021/05/11 02:50:30;;;;;;;0.60;0.52;;;14.30;57.80;;;;;;5028231;28;20041;-82
2021/05/11 02:52:56;;;;;;;0.30;0.30;;;;;;;;;;5028243;28;20033;-81
2021/05/11 02:55:22;;;;;;;2.40;0.40;;;;;;;;;;5029169;28;20030;-81
2021/05/11 02:57:49;;;;;;;2.78;0.40;;;14.20;59.70;;;;;;5018336;28;20026;-81
2021/05/11 03:00:17;;;;;;;0.40;0.40;;;14.20;59.00;;;;;;5024647;28;20891;-81
2021/05/11 03:02:44;;;;;;;0.55;0.47;;;;;;;;;;5030019;28;20037;-81
2021/05/11 03:05:10;;;;;;;0.30;0.30;;;;;;;;;;5031615;28;20561;-81
2021/05/11 03:07:36;;;;;;;0.30;0.30;;;;;;;;;;5016350;28;20491;-81
2021/05/11 03:10:04;;;;;;;0.47;0.47;;;14.10;60.20;;;;;;5032058;28;20037;-81
2021/05/11 03:12:30;;;;;;;0.40;0.40;;;;;;;;;;5030181;28;20512;-82
2021/05/11 03:14:56;;;;;;;0.50;0.50;;;;;;;;;;5029406;28;20037;-81
2021/05/11 03:17:23;;;;;;;0.57;0.30;;;;;;;;;;5031472;28;20033;-82
2021/05/11 03:19:48;;;;;;;1.83;0.50;;;;;;;;;;5031388;28;20487;-82
2021/05/11 03:22:14;;;;;;;0.55;0.40;;;;;;;;;;5032190;28;20021;-82
2021/05/11 03:24:44;;;;;;;0.50;0.50;;;;;;;;;;5030705;28;20133;-81
2021/05/11 03:27:10;;;;;;;0.98;0.80;;;;;;;;;;5031359;28;20032;-82
2021/05/11 03:29:36;;;;;;;0.82;0.52;;;;;;;;;;5031105;28;20542;-82
2021/05/11 03:32:02;;;;;;;1.83;1.15;;;;;;;;;;5015501;28;20044;-81
2021/05/11 03:34:28;;;;;;;1.83;1.30;;;;;;;;;;5032295;28;20025;-81
2021/05/11 03:36:54;;;;;;;0.93;0.80;;;;;;;;;;5020837;28;20041;-81
2021/05/11 03:39:20;;;;;;;1.10;0.93;;;;;;;;;;5025535;28;20091;-81
2021/05/11 03:41:51;;;;;;;0.50;0.50;;;;;;;;;;5030708;28;20030;-81
2021/05/11 03:44:21;;;;;;;0.43;0.40;;;;;;;;;;5030716;28;20061;-81
2021/05/11 03:46:47;;;;;;;2.58;0.65;;;;;;;;;;5031245;28;20498;-81
2021/05/11 03:49:13;;;;;;;1.00;0.95;;;;;;;;;;5031639;28;20087;-81
2021/05/11 03:51:39;;;;;;;2.03;0.47;;;14.00;58.90;;;;;;5029387;28;20030;-81
2021/05/11 03:54:06;;;;;;;1.20;0.90;;;;;;;;;;5030905;28;20072;-81
2021/05/11 03:56:32;;;;;;;0.47;0.47;;;;;;;;;;5031098;28;20018;-81
2021/05/11 03:58:59;;;;;;;0.65;0.65;;;;;;;;;;5029362;28;20041;-82
2021/05/11 04:01:25;;;;;;;1.33;0.68;;;;;;;;;;5031432;28;20694;-81
2021/05/11 04:03:51;;;;;;;0.50;0.50;;;;;;;;;;5030555;28;20045;-82
2021/05/11 04:06:17;;;;;;;2.05;0.60;;;;;;;;;;5029027;28;20025;-81
2021/05/11 04:08:48;;;;;;;0.88;0.60;;;;;;;;;;5030471;28;20029;-81
2021/05/11 04:16:09;;;;;;;0.95;0.52;;;;;;;;;;5030553;28;20496;-82
2021/05/11 04:16:35;;;;;;;0.50;0.50;;;;;;;;;;5028405;28;20030;-82
2021/05/11 04:19:01;;;;;;;0.82;0.60;;;;;;;;;;5029764;28;20034;-81
2021/05/11 04:21:27;;;;;;;0.95;0.73;;;;;;;;;;5020529;28;20041;-81
2021/05/11 04:23:55;;;;;;;0.55;0.55;;;;;;;;;;5020838;28;20033;-81
2021/05/11 04:26:21;;;;;;;;;;;14.00;58.70;;;;;;5030641;28;20060;-82
2021/05/11 04:28:48;;;;;;;0.40;0.30;;;14.20;55.30;;;;;;5030112;28;20021;-81
2021/05/11 04:31:14;;;;;;;1.20;1.10;;;14.30;55.80;;;;;;5030911;28;20049;-81
2021/05/11 04:33:40;;;;;;;0.60;0.60;;;;;;;;;;5029776;28;20069;-81
2021/05/11 04:36:07;;;;;;;0.68;0.52;;;14.40;56.40;;;;;;5029739;28;20570;-82
2021/05/11 04:38:33;;;;;;;0.40;0.40;;;;;;;;;;5030334;28;20033;-81
2021/05/11 04:40:59;;;;;;;0.35;0.35;;;;;;;;;;5013857;28;20487;-81
2021/05/11 04:43:27;;;;;;;0.25;0.25;;;;;;;;;;5030710;28;20029;-81
2021/05/11 04:46:07;;;;;;;;;;;14.40;55.40;;;;;;5030546;28;20120;-81
2021/05/11 04:48:34;;;;;;;1.40;0.55;;;;;;;;;;5021979;28;20445;-82
2021/05/11 04:51:00;;;;;;;0.30;0.30;;;;;;;;;;5020890;28;20034;-82
2021/05/11 04:53:26;;;;;;;0.30;0.30;;;;;;;;;;5028283;28;20033;-81
2021/05/11 04:55:52;;;;;;;0.35;0.35;;;14.10;56.60;;;;;;5030112;28;20107;-82
2021/05/11 04:58:18;;;;;;;0.35;0.35;;;;;;;;;;5017590;28;20037;-82
2021/05/11 05:00:44;;;;;;;2.70;1.73;;;;;;;;;;5022978;28;20025;-81
2021/05/11 05:03:14;;;;;;;0.90;0.68;;;;;;;;;;5029558;28;20342;-82
2021/05/11 05:05:40;;;;;;;1.33;0.75;;;;;;;;;;5029262;28;20506;-81
2021/05/11 05:08:06;;;;;;;5.57;0.50;;;;;;;;;;5014447;28;20039;-81
2021/05/11 05:10:32;;;;;;;0.47;0.47;;;;;;;;;;5026066;28;20548;-81
2021/05/11 05:12:58;;;;;;;0.60;0.52;;;;;;;;;;5032587;28;20051;-82
2021/05/11 05:15:24;;;;;;;1.08;0.50;;;;;;;;;;5024096;28;20080;-81
2021/05/11 05:17:50;;;;;;;0.50;0.50;;;;;;;;;;5022036;28;20075;-81
2021/05/11 05:20:16;;;;;;;0.57;0.50;;;;;;;;;;5027882;28;20109;-82
2021/05/11 05:22:43;;;;;;;0.50;0.43;;;;;;;;;;5027951;28;20475;-81
2021/05/11 05:25:15;;;;;;;0.75;0.70;;;14.20;54.80;;;;;;5025440;28;20039;-82
2021/05/11 05:30:10;;;;;;;0.45;0.45;;;;;;;;;;5025880;28;20085;-81
2021/05/11 05:32:36;;;;;;;0.60;0.50;;;;;;;;;;5019699;28;20030;-82
2021/05/11 05:35:02;;;;;;;0.73;0.63;;;;;;;;;;5017693;28;20026;-85
2021/05/11 05:37:29;;;;;;;0.43;0.40;;;;;;;;;;5029246;28;20013;-92
2021/05/11 05:39:58;;;;;;;1.20;0.50;;;;;;;;;;5031847;28;20175;-92
2021/05/11 05:42:24;;;;;;;1.63;0.90;;;;;;;;;;5025993;28;20101;-92
2021/05/11 05:44:51;;;;;;;1.05;0.68;;;;;;;;;;5022190;28;20102;-96
2021/05/11 05:47:21;;;;;;;1.33;0.50;;;;;;;;;;5032086;28;20022;-89
2021/05/11 05:49:50;;;;;;;0.75;0.55;;;;;;;;;;5046560;28;20136;-90
2021/05/11 05:52:21;;;;;;;3.38;0.75;;;;;;;;;;5021230;28;20026;-86
2021/05/11 05:54:47;;;;;;;1.05;0.88;;;;;;;;;;5029283;28;20086;-90
2021/05/11 05:57:14;;;;;;;0.30;0.30;;;;;;;;;;5031571;28;20070;-91
2021/05/11 05:59:41;;;;;;;3.13;0.70;;;;;;;;;;5047173;28;20102;-95
2021/05/11 06:02:10;;;;;;;0.75;0.75;;;;;;;;;;5031432;28;20022;-93
2021/05/11 06:04:36;;;;;;;0.50;0.50;;;;;;;;;;5030835;28;20041;-92
2021/05/11 06:07:02;;;;;;;1.15;0.60;;;;;;;;;;5030906;28;20025;-92
2021/05/11 06:09:29;;;;;;;0.40;0.40;;;;;;;;;;5031872;28;20475;-89
2021/05/11 06:14:31;;;;;;;2.25;0.47;;;;;;;;;;5014319;28;20029;-84
2021/05/11 06:17:13;;;;;;;1.00;0.60;;;14.40;55.60;;;;;;5011581;28;20033;-85
2021/05/11 06:19:40;;;;;;;3.30;0.88;;;;;;;;;;5025050;28;21199;-84
2021/05/11 06:22:06;;;;;;;1.85;0.70;;;;;;;;;;5028631;28;20028;-84
2021/05/11 06:24:32;;;;;;;0.80;0.77;;;;;;;;;;5027508;28;20056;-85
2021/05/11 06:26:58;;;;;;;0.57;0.57;;;;;;;;;;5022818;28;20026;-85
2021/05/11 06:29:26;;;;;;;1.38;0.95;;;;;;;;;;5026141;28;20022;-84
2021/05/11 06:31:52;;;;;;;7.18;1.20;;;;;;;;;;5027501;28;20026;-85
2021/05/11 06:34:18;;;;;;;2.35;1.15;;;;;;;;;;5031222;28;20405;-84
2021/05/11 06:36:44;;;;;;;2.05;1.23;;;;;;;;;;5022800;28;20022;-84
2021/05/11 06:39:12;;;;;;;1.77;1.17;;;;;;;;;;5020402;28;20034;-85
2021/05/11 06:41:40;;;;;;;0.95;0.82;;;;;;;;;;5020470;28;20096;-84
2021/05/11 06:44:08;;;;;;;;;;;14.30;57.80;;;;;;5015602;28;20053;-84
2021/05/11 06:54:42;;;;;;;1.52;0.85;;;;;;;;;;5028547;28;20564;-84
2021/05/11 06:57:08;;;;;;;1.15;0.57;;;;;;;;;;5031311;28;20114;-84
2021/05/11 06:59:34;;;;;;;0.68;0.65;;;14.60;57.20;;;;;;5030697;28;20118;-84
2021/05/11 07:02:02;;;;;;;1.02;0.73;;;;;;;;;;5015062;28;20044;-85
2021/05/11 07:04:28;;;;;;;0.70;0.70;;;;;;;;;;5031968;28;20017;-85
2021/05/11 07:06:54;;;;;;;2.45;1.35;;;;;;;;;;5020822;28;20437;-84
2021/05/11 07:10:05;;;;;;;2.42;1.45;;;;;;;;;;5025600;28;20030;-85
2021/05/11 07:14:58;;;;;;;1.15;1.02;;;;;;;;;;5028350;28;20048;-84
2021/05/11 07:17:24;;;;;;;1.83;1.63;;;;;;;;;;5017892;28;20079;-84
2021/05/11 07:19:51;;;;;;;2.50;0.60;;;;;;;;;;5031240;28;20469;-84
2021/05/11 07:22:17;;;;;;;3.03;0.60;;;;;;;;;;5016276;28;20132;-84
2021/05/11 07:24:46;;;;;;;2.45;0.77;;;;;;;;;;5031989;28;20096;-84
2021/05/11 07:29:57;;;;;;;0.65;0.60;;;;;;;;;;5019212;28;20538;-86
2021/05/11 07:32:24;;;;;;;0.77;0.55;;;;;;;;;;5017555;28;20080;-84
2021/05/11 07:34:54;;;;;;;1.60;1.00;;;;;;;;;;5014591;28;20057;-85
2021/05/11 07:37:20;;;;;;;0.55;0.55;;;;;;;;;;5016143;28;20034;-84
2021/05/11 07:39:46;;;;;;;1.20;0.80;;;;;;;;;;5028684;28;20044;-86
2021/05/11 07:42:12;;;;;;;0.63;0.50;;;16.30;49.60;;;;;;5025811;28;20471;-84
2021/05/11 07:44:44;;;;;;;0.65;0.65;;;;;;;;;;5029405;28;20414;-85
2021/05/11 07:47:15;;;;;;;0.30;0.30;;;;;;;;;;5014936;28;20037;-84
2021/05/11 08:10:55;;;;;;;0.60;0.38;;;;;;;;;;5025610;28;20079;-92
2021/05/11 08:29:18;;;;;;;0.30;0.13;;;;;;;;;;5016311;28;20040;-83
2021/05/11 08:31:44;;;;;;;0.10;0.10;;;;;;;;;;5014942;28;20457;-83
2021/05/11 08:34:10;;;;;;;0.20;0.20;;;;;;;;;;5044047;28;20033;-84
2021/05/11 08:36:36;;;;;;;0.22;0.22;;;;;;;;;;5027988;28;20030;-84
2021/05/11 08:39:03;;;;;;;0.20;0.10;;;;;;;;;;5026421;28;20030;-84
2021/05/11 08:41:29;;;;;;;1.02;0.10;;;;;;;;;;5029809;28;20095;-84
2021/05/11 08:43:55;;;;;;;0.52;0.30;;;;;;;;;;5012590;28;20046;-84
2021/05/11 08:46:21;;;;;;;0.20;0.10;;;;;;;;;;5029950;28;20514;-84
2021/05/11 08:48:49;;;;;;;0.32;0.20;;;;;;;;;;5028327;28;20022;-84
2021/05/11 08:51:28;;;;;;;0.63;0.30;;;;;;;;;;5028697;28;20029;-87
2021/05/11 09:26:51;;;;;;;0.20;0.20;;;19.50;36.10;;;;;;4966717;28;20039;-84
2021/05/11 09:32:25;;;;;;;0.30;0.20;;;;;;;;;;4967212;28;20057;-83
2021/05/11 09:57:08;;;;;;;0.30;0.30;;;;;;;;;;4969166;28;20034;-86
2021/05/11 10:10:53;;;;;;;1.85;0.95;;;;;;;;;;5034596;28;20096;-86
2021/05/11 10:42:10;;;;;;;0.13;0.13;;;20.10;37.10;;;;;;5019440;28;20030;-82
2021/05/11 10:49:33;;;;;;;0.63;0.60;;;20.10;37.50;;;;;;5034705;28;20033;-88
2021/05/11 10:54:42;;;;;;;0.20;0.20;;;;;;;;;;5023792;28;20026;-83
2021/05/11 10:57:27;;;;;;;0.52;0.38;;;20.70;36.40;;;;;;5029173;28;20565;-83
2021/05/11 11:00:17;;;;;;;0.30;0.30;;;;;;;;;;5026346;28;20041;-83
2021/05/11 11:02:48;;;;;;;1.15;0.40;;;;;;;;;;5021852;28;20036;-83
2021/05/11 11:05:52;;;;;;;0.28;0.28;;;20.10;35.30;;;;;;5018567;28;20124;-82
2021/05/11 11:08:28;;;;;;;0.30;0.28;;;19.80;34.10;;;;;;5028885;28;20029;-82
2021/05/11 11:11:12;;;;;;;0.68;0.30;;;19.80;57.10;;;;;;5031831;28;20037;-83
2021/05/11 11:13:39;;;;;;;0.32;0.30;;;;;;;;;;5030748;28;20043;-83
2021/05/11 11:16:05;;;;;;;0.20;0.20;;;;;;;;;;5022369;28;20161;-83
2021/05/11 11:18:31;;;;;;;0.30;0.30;;;;;;;;;;5026521;28;20033;-84
2021/05/11 11:23:54;;;;;;;0.43;0.40;;;18.90;36.30;;;;;;5030747;28;20379;-83
2021/05/11 11:26:40;;;;;;;0.20;0.20;;;18.90;38.20;;;;;;5016183;28;20037;-83
2021/05/11 11:29:08;;;;;;;0.65;0.40;;;18.90;38.60;;;;;;5014188;28;20033;-83
2021/05/11 11:31:37;;;;;;;0.30;0.30;;;18.70;39.40;;;;;;5030910;28;20529;-83
2021/05/11 11:34:35;;;;;;;2.90;0.40;;;18.60;39.90;;;;;;5025707;28;20025;-83
2021/05/11 11:37:02;;;;;;;0.20;0.20;;;;;;;;;;5018917;28;20030;-81
2021/05/11 11:39:45;;;;;;;0.40;0.40;;;18.10;40.60;;;;;;5036398;28;20076;-83
2021/05/11 11:42:20;;;;;;;5.00;0.43;;;;;;;;;;5023842;28;20037;-83
2021/05/11 11:44:47;;;;;;;0.30;0.30;;;;;;;;;;5019040;28;20041;-83
2021/05/11 11:47:14;;;;;;;0.30;0.30;;;;;;;;;;5018112;28;20371;-90
2021/05/11 11:49:45;;;;;;;1.35;0.32;;;17.60;43.30;;;;;;5033425;28;20132;-86
2021/05/11 11:52:17;;;;;;;0.38;0.32;;;17.40;42.40;;;;;;5030532;28;20083;-89
2021/05/11 11:55:01;;;;;;;0.45;0.43;;;;;;;;;;5031946;28;20068;-88
2021/05/11 12:00:13;;;;;;;0.32;0.32;;;;;;;;;;5028054;28;20117;-84
2021/05/11 12:02:39;;;;;;;2.85;0.30;;;;;;;;;;5029853;28;20057;-85
2021/05/11 12:05:09;;;;;;;0.30;0.30;;;;;;;;;;5013703;28;20592;-85
2021/05/11 12:07:43;;;;;;;0.22;0.22;;;;;;;;;;5015564;28;20026;-84
2021/05/11 12:10:09;;;;;;;0.30;0.30;;;16.60;49.90;;;;;;5029279;28;20383;-84
2021/05/11 12:12:36;;;;;;;0.40;0.40;;;;;;;;;;5021500;28;20519;-85
2021/05/11 12:15:13;;;;;;;0.35;0.35;;;16.40;53.20;;;;;;5018431;28;20037;-85
2021/05/11 12:17:45;;;;;;;0.50;0.50;;;;;;;;;;5018313;28;20037;-86
2021/05/11 12:20:25;;;;;;;1.13;0.40;;;16.40;55.90;;;;;;5029891;28;20033;-85
2021/05/11 12:23:14;;;;;;;0.60;0.60;;;16.40;55.30;;;;;;5027753;28;20059;-85
2021/05/11 12:25:40;;;;;;;0.40;0.40;;;;;;;;;;5026733;28;20155;-86
2021/05/11 12:28:06;;;;;;;0.30;0.30;;;;;;;;;;5030134;28;20112;-85
2021/05/11 12:30:37;;;;;;;0.93;0.47;;;16.10;53.60;;;;;;5027622;28;20049;-85
2021/05/11 12:33:04;;;;;;;0.38;0.38;;;15.90;54.90;;;;;;5027215;28;20034;-85
2021/05/11 12:35:30;;;;;;;0.30;0.30;;;;;;;;;;5039713;28;20037;-86
2021/05/11 12:37:58;;;;;;;0.20;0.20;;;;;;;;;;5013385;28;20038;-84
2021/05/11 12:40:40;;;;;;;0.93;0.85;;;15.90;54.50;;;;;;5019271;28;20026;-86
2021/05/11 12:43:06;;;;;;;0.20;0.20;;;;;;;;;;5031189;28;20409;-92
2021/05/11 12:45:39;;;;;;;0.30;0.30;;;;;;;;;;5032986;28;20045;-90
2021/05/11 12:48:07;;;;;;;0.32;0.32;;;;;;;;;;5032698;28;20021;-88
2021/05/11 12:50:39;;;;;;;0.30;0.30;;;16.00;50.40;;;;;;5033095;28;20057;-90
2021/05/11 12:53:26;;;;;;;0.30;0.30;;;15.80;51.90;;;;;;5031698;28;20525;-90
2021/05/11 12:56:19;;;;;;;2.80;0.30;;;;;;;;;;5027051;28;20029;-85
2021/05/11 13:04:51;;;;;;;0.20;0.20;;;15.90;51.40;;;;;;5018351;28;20033;-85
2021/05/11 13:25:57;;;;;;;0.38;0.38;;;;;;;;;;5031439;28;20045;-89
2021/05/11 13:28:34;;;;;;;0.30;0.30;;;;;;;;;;5024682;28;20040;-87
2021/05/11 13:31:10;;;;;;;0.60;0.60;;;;;;;;;;5029137;28;20053;-84
2021/05/11 13:33:51;;;;;;;0.50;0.40;;;;;;;;;;5028344;28;20085;-84
2021/05/11 13:36:17;;;;;;;1.15;0.70;;;;;;;;;;5022481;28;20080;-84
2021/05/11 13:38:43;;;;;;;0.40;0.22;;;;;;;;;;5017202;28;20025;-83
2021/05/11 13:41:10;;;;;;;1.17;0.93;;;;;;;;;;5027120;28;20033;-82
2021/05/11 13:43:36;;;;;;;0.35;0.35;;;;;;;;;;5012657;28;20038;-83
2021/05/11 13:46:02;;;;;;;0.57;0.57;;;;;;;;;;5026781;28;20056;-84
2021/05/11 13:48:36;;;;;;;1.17;0.40;;;;;;;;;;5021976;28;20026;-83
2021/05/11 13:51:05;;;;;;;7.22;0.50;;;;;;;;;;5017019;28;20525;-83
2021/05/11 13:53:36;;;;;;;0.68;0.30;;;;;;;;;;5014681;28;20502;-83
2021/05/11 14:02:05;;;;;;;0.38;0.20;;;;;;;;;;4963544;28;20239;-84
2021/05/11 14:04:31;;;;;;;0.30;0.30;;;;;;;;;;4962407;28;20042;-83
2021/05/11 14:06:57;;;;;;;0.30;0.30;;;;;;;;;;4961148;28;20027;-84
2021/05/11 14:09:23;;;;;;;0.30;0.30;;;;;;;;;;4966225;28;20049;-83
2021/05/11 14:11:49;;;;;;;0.30;0.30;;;;;;;;;;4965246;28;20039;-84
2021/05/11 14:14:15;;;;;;;0.30;0.30;;;;;;;;;;4964866;28;20097;-85
2021/05/11 14:16:43;;;;;;;0.30;0.30;;;17.30;42.50;;;;;;4966029;28;20035;-84
2021/05/11 14:19:10;;;;;;;0.20;0.20;;;;;;;;;;4965565;28;20604;-85
2021/05/11 14:21:36;;;;;;;0.40;0.40;;;;;;;;;;4965005;28;20058;-91
2021/05/11 14:24:02;;;;;;;0.20;0.20;;;;;;;;;;4968699;28;20034;-91
2021/05/11 14:26:28;;;;;;;1.33;0.32;;;;;;;;;;4957920;28;20035;-89
2021/05/11 14:28:56;;;;;;;0.20;0.20;;;;;;;;;;4967271;28;20142;-87
2021/05/11 14:31:23;;;;;;;0.35;0.35;;;;;;;;;;4968390;28;20062;-93
2021/05/11 14:33:49;;;;;;;0.45;0.30;;;;;;;;;;4970096;28;20031;-91
2021/05/11 14:36:15;;;;;;;0.20;0.20;;;;;;;;;;5020573;28;20518;-91
2021/05/11 14:38:41;;;;;;;0.40;0.40;;;;;;;;;;5027921;28;20144;-87
2021/05/11 14:41:07;;;;;;;0.30;0.30;;;;;;;;;;5027188;28;20470;-92
2021/05/11 14:43:33;;;;;;;0.20;0.20;;;;;;;;;;5019113;28;20729;-85
2021/05/11 14:46:03;;;;;;;0.30;0.30;;;16.60;41.80;;;;;;5039157;28;20394;-87
2021/05/11 14:48:30;;;;;;;0.30;0.30;;;;;;;;;;5020045;28;20037;-88
2021/05/11 14:50:56;;;;;;;0.30;0.30;;;;;;;;;;5025380;28;20029;-90
2021/05/11 14:53:22;;;;;;;0.38;0.38;;;;;;;;;;5022698;28;20483;-89
2021/05/11 14:55:48;;;;;;;0.28;0.28;;;;;;;;;;5027891;28;20009;-87
2021/05/11 14:58:14;;;;;;;6.40;0.43;;;;;;;;;;5033501;28;20040;-87
2021/05/11 15:00:40;;;;;;;1.25;0.40;;;;;;;;;;5029329;28;20021;-88
2021/05/11 15:03:06;;;;;;;0.52;0.40;;;;;;;;;;5034087;28;20463;-91
2021/05/11 15:05:32;;;;;;;0.57;0.25;;;;;;;;;;5045776;28;20044;-91
2021/05/11 15:07:58;;;;;;;0.30;0.30;;;;;;;;;;5022018;28;20128;-81
2021/05/11 15:10:24;;;;;;;0.30;0.30;;;;;;;;;;5027637;28;20399;-80
2021/05/11 15:12:50;;;;;;;0.60;0.60;;;;;;;;;;5029242;28;20726;-81
2021/05/11 15:15:20;;;;;;;1.98;0.32;;;;;;;;;;5026919;28;20396;-81
2021/05/11 15:20:13;;;;;;;1.80;0.32;;;;;;;;;;5028121;28;20040;-81
2021/05/11 15:22:39;;;;;;;0.57;0.32;;;;;;;;;;5024990;28;20534;-81
2021/05/11 15:25:06;;;;;;;0.30;0.30;;;17.10;63.20;;;;;;5028442;28;20041;-80
2021/05/11 15:27:33;;;;;;;0.35;0.30;;;16.70;39.60;;;;;;5026750;28;20168;-80
2021/05/11 15:29:59;;;;;;;0.30;0.30;;;;;;;;;;5041580;28;20094;-80
2021/05/11 15:32:40;;;;;;;0.65;0.40;;;16.40;44.10;;;;;;5030337;28;20087;-80
2021/05/11 15:35:10;;;;;;;0.50;0.50;;;16.60;63.60;;;;;;5029946;28;20020;-81
2021/05/11 15:37:36;;;;;;;2.08;0.85;;;16.50;41.00;;;;;;5029557;28;20026;-81
2021/05/11 15:40:08;;;;;;;1.25;0.40;;;16.60;41.60;;;;;;5027008;28;20029;-80
2021/05/11 15:42:34;;;;;;;0.88;0.40;;;;;;;;;;5024519;28;20080;-82
2021/05/11 15:44:59;;;;;;;1.23;0.50;;;;;;;;;;5027305;28;20528;-82
2021/05/11 15:47:26;;;;;;;0.40;0.30;;;;;;;;;;5042897;28;20052;-82
2021/05/11 15:49:52;;;;;;;0.20;0.20;;;;;;;;;;5041221;28;20033;-82
2021/05/11 15:52:18;;;;;;;0.20;0.20;;;;;;;;;;5021982;28;20120;-81
2021/05/11 15:54:44;;;;;;;0.65;0.50;;;;;;;;;;5035961;28;20082;-82
2021/05/11 15:57:10;;;;;;;0.32;0.32;;;;;;;;;;5028930;28;20095;-83
2021/05/11 15:59:36;;;;;;;0.30;0.30;;;;;;;;;;5021267;28;20067;-82
2021/05/11 16:02:02;;;;;;;0.20;0.20;;;;;;;;;;5030599;28;20038;-82
2021/05/11 16:04:28;;;;;;;2.38;0.50;;;;;;;;;;5043040;28;20030;-83
2021/05/11 16:06:54;;;;;;;2.42;0.30;;;;;;;;;;5028768;28;20087;-81
2021/05/11 16:09:21;;;;;;;0.30;0.30;;;16.90;37.60;;;;;;5028780;28;20034;-82
2021/05/11 16:11:47;;;;;;;0.30;0.30;;;;;;;;;;5029934;28;20410;-83
2021/05/11 16:14:13;;;;;;;0.90;0.30;;;;;;;;;;5023907;28;20390;-82
2021/05/11 16:16:39;;;;;;;0.40;0.30;;;;;;;;;;5031631;28;20022;-82
2021/05/11 16:19:05;;;;;;;1.65;0.38;;;;;;;;;;5022268;28;20384;-82
2021/05/11 16:21:31;;;;;;;1.05;0.40;;;;;;;;;;5022336;28;20029;-82
2021/05/11 16:23:57;;;;;;;0.40;0.30;;;;;;;;;;5017993;28;20041;-82
2021/05/11 16:26:27;;;;;;;1.05;1.00;;;16.70;41.40;;;;;;5030568;28;20037;-82
2021/05/11 16:28:53;;;;;;;0.50;0.45;;;16.70;39.80;;;;;;5024941;28;20028;-81
2021/05/11 16:31:20;;;;;;;0.32;0.32;;;;;;;;;;5029693;28;20060;-82
2021/05/11 16:33:46;;;;;;;0.40;0.40;;;;;;;;;;5025614;28;20072;-82
2021/05/11 16:36:12;;;;;;;0.43;0.40;;;;;;;;;;5022157;28;20577;-81
2021/05/11 16:38:38;;;;;;;0.52;0.50;;;;;;;;;;5028720;28;20485;-82
2021/05/11 16:41:04;;;;;;;0.68;0.68;;;;;;;;;;5026717;28;20060;-83
2021/05/11 16:43:30;;;;;;;0.65;0.40;;;;;;;;;;5030163;28;20144;-82
2021/05/11 16:46:01;;;;;;;0.30;0.30;;;;;;;;;;5028651;28;20120;-81
2021/05/11 16:48:27;;;;;;;0.40;0.40;;;;;;;;;;5044724;28;20060;-82
2021/05/11 16:50:53;;;;;;;0.30;0.30;;;;;;;;;;5025427;28;20034;-82
2021/05/11 16:53:19;;;;;;;0.52;0.50;;;;;;;;;;5030027;28;20032;-83
2021/05/11 16:55:45;;;;;;;1.58;0.85;;;;;;;;;;5028359;28;20079;-81
2021/05/11 16:58:12;;;;;;;0.50;0.50;;;;;;;;;;5029302;28;20762;-81
2021/05/11 17:00:39;;;;;;;1.45;0.52;;;;;;;;;;5028136;28;20022;-82
2021/05/11 17:03:05;;;;;;;0.30;0.30;;;;;;;;;;5030029;28;20422;-82
2021/05/11 17:05:31;;;;;;;1.35;0.60;;;;;;;;;;5026157;28;20044;-83
2021/05/11 17:07:57;;;;;;;0.55;0.50;;;;;;;;;;5029281;28;20033;-82
2021/05/11 17:10:24;;;;;;;1.15;0.88;;;;;;;;;;5025536;28;20088;-82
2021/05/11 17:12:51;;;;;;;0.73;0.38;;;;;;;;;;5029830;28;20113;-82
2021/05/11 17:15:17;;;;;;;0.30;0.30;;;15.90;48.00;;;;;;5029084;28;20033;-82
2021/05/11 17:17:46;;;;;;;4.67;2.50;;;;;;;;;;5042529;28;20112;-81
2021/05/11 17:20:12;;;;;;;0.93;0.68;;;;;;;;;;5028966;28;20056;-82
2021/05/11 17:22:38;;;;;;;0.50;0.50;;;;;;;;;;5029483;28;20025;-81
2021/05/11 17:25:06;;;;;;;0.50;0.50;;;;;;;;;;5027168;28;20042;-82
2021/05/11 17:27:32;;;;;;;0.47;0.47;;;;;;;;;;5026053;28;20017;-82
2021/05/11 17:30:02;;;;;;;0.45;0.40;;;;;;;;;;5029098;28;20045;-82
2021/05/11 17:32:28;;;;;;;1.50;0.40;;;;;;;;;;5019352;28;20044;-82
2021/05/11 17:34:53;;;;;;;1.38;0.45;;;;;;;;;;5029439;28;20025;-82
2021/05/11 17:37:19;;;;;;;0.50;0.50;;;;;;;;;;5024468;28;20413;-82
2021/05/11 17:39:45;;;;;;;1.50;0.80;;;;;;;;;;5026193;28;20062;-82
2021/05/11 17:42:11;;;;;;;2.85;0.80;;;;;;;;;;5020643;28;20522;-82
2021/05/11 17:44:37;;;;;;;0.68;0.65;;;;;;;;;;5028933;28;20037;-83
2021/05/11 17:47:05;;;;;;;1.05;0.38;;;;;;;;;;5024134;28;20029;-83
2021/05/11 17:49:31;;;;;;;3.60;0.77;;;;;;;;;;5030036;28;20040;-82
2021/05/11 17:51:57;;;;;;;0.47;0.47;;;;;;;;;;5024958;28;20487;-81
2021/05/11 17:54:23;;;;;;;1.30;0.90;;;;;;;;;;5028579;28;20018;-82
2021/05/11 17:56:49;;;;;;;0.70;0.45;;;;;;;;;;5026633;28;20398;-82
2021/05/11 17:59:15;;;;;;;4.35;0.63;;;;;;;;;;5028748;28;20021;-81
2021/05/11 18:01:43;;;;;;;1.40;1.30;;;;;;;;;;5025024;28;20121;-82
2021/05/11 18:04:08;;;;;;;;;;;14.50;57.10;;;;;;5029333;28;20067;-82
2021/05/11 18:06:34;;;;;;;7.30;1.42;;;;;;;;;;5026414;28;20331;-82
2021/05/11 18:09:00;;;;;;;1.17;0.75;;;;;;;;;;5026072;28;20064;-82
2021/05/11 18:11:26;;;;;;;0.85;0.60;;;;;;;;;;5028706;28;20482;-83
2021/05/11 18:13:52;;;;;;;9.40;1.83;;;;;;;;;;5021522;28;20036;-81
2021/05/11 18:16:18;;;;;;;0.90;0.73;;;;;;;;;;5029508;28;20032;-83
2021/05/11 18:18:45;;;;;;;0.80;0.70;;;;;;;;;;5026255;28;20037;-83
2021/05/11 18:21:11;;;;;;;0.50;0.50;;;;;;;;;;5028336;28;20497;-82
2021/05/11 18:23:37;;;;;;;1.95;0.60;;;;;;;;;;5022526;28;20498;-80
2021/05/11 18:26:03;;;;;;;0.50;0.50;;;;;;;;;;5028621;28;20041;-82
2021/05/11 18:28:29;;;;;;;3.35;1.75;;;;;;;;;;5019661;28;20049;-83
2021/05/11 18:30:56;;;;;;;2.35;0.80;;;;;;;;;;5030669;28;20064;-82
2021/05/11 18:33:22;;;;;;;0.70;0.63;;;;;;;;;;5031344;28;20045;-81
2021/05/11 18:35:49;;;;;;;26.70;1.38;;;;;;;;;;5032302;28;20052;-83
2021/05/11 18:38:20;;;;;;;0.63;0.52;;;;;;;;;;5029690;28;20477;-82
2021/05/11 18:40:46;;;;;;;1.05;0.60;;;;;;;;;;5032757;28;20573;-82
2021/05/11 18:43:12;;;;;;;0.65;0.60;;;;;;;;;;5029765;28;20110;-81
2021/05/11 18:45:39;;;;;;;0.50;0.50;;;;;;;;;;5028326;28;20513;-84